Terminal Aerodrome Forecast
Issued by NWS Green Bay, WI

Home | Current Version | Previous Version | Graphics & Text | Print | Product List | Glossary On
Versions: 1 2 3 4 5 6 7 8 9 10 11 12 13 14 15 16 17 18 19 20 21 22
000
FTUS43 KGRB 252207 AAB
TAFGRB
TAF AMD
KGRB 252207Z 2522/2618 19009G16KT P6SM VCSH SCT025 BKN050
      TEMPO 2522/2524 BKN025
     FM260300 26012KT P6SM SCT025 BKN140
     FM260800 26013G18KT P6SM SCT025 BKN200
     FM261500 26016G24KT P6SM VCSH BKN035 OVC050=

USA.gov is the U.S. government's official web portal to all federal, state and local government web resources and services.